Time;durP1;ratioP1;P1;durP2;ratioP2;P2;SDS_P1;SDS_P2;PMS_P1;PMS_P2;Temp;Humidity;BMP_temperature;BMP_pressure;BME280_temperature;BME280_humidity;BME280_pressure;Samples;Min_cycle;Max_cycle;Signal;HPM_P1;HPM_P2
2021/05/01 00:00:46;;;;;;;;;;;;;;;;;;4412467;32;19954;-84
2021/05/01 00:03:17;;;;;;;;;;;;;;;;;;4415346;32;20005;-83
2021/05/01 00:05:45;;;;;;;;;;;;;;;;;;4413855;32;19964;-84
2021/05/01 00:08:15;;;;;;;;;;;;;;;;;;4411761;32;20017;-84
2021/05/01 00:10:45;;;;;;;;;;;;;;;;;;4406374;32;19977;-84
2021/05/01 00:13:16;;;;;;;;;;;;;;;;;;4413577;32;20753;-84
2021/05/01 00:15:46;;;;;;;;;;;;;;;;;;4417814;32;19972;-84
2021/05/01 00:18:16;;;;;;;;;;;;;;;;;;4412652;32;20024;-85
2021/05/01 00:20:46;;;;;;;;;;;;;;;;;;4411583;32;20017;-85
2021/05/01 00:23:16;;;;;;;;;;;;;;;;;;4417565;32;20000;-84
2021/05/01 00:25:47;;;;;;;;;;;;;;;;;;4411205;32;20548;-84
2021/05/01 00:28:14;;;;;;;;;;;;;;;;;;4414404;32;20072;-85
2021/05/01 00:30:45;;;;;;;;;;;;;;;;;;4425211;32;20029;-84
2021/05/01 00:33:15;;;;;;;;;;;;;;;;;;4412664;32;20005;-87
2021/05/01 00:35:45;;;;;;;;;;;;;;;;;;4401585;32;20347;-83
2021/05/01 00:38:16;;;;;;;;;;;;;;;;;;4418129;32;19946;-83
2021/05/01 00:40:45;;;;;;;;;;;;;;;;;;4428558;32;19976;-83
2021/05/01 00:43:16;;;;;;;;;;;;;;;;;;4413590;32;20061;-84
2021/05/01 00:45:46;;;;;;;;;;;;;;;;;;4420234;32;20347;-83
2021/05/01 00:48:16;;;;;;;;;;;;;;;;;;4416125;32;20005;-84
2021/05/01 00:50:46;;;;;;;;;;;;;;;;;;4426206;32;20341;-83
2021/05/01 00:53:17;;;;;;;;;;;;;;;;;;4416063;32;20565;-84
2021/05/01 00:55:47;;;;;;;;;;;;;;;;;;4409068;32;20015;-83
2021/05/01 00:58:18;;;;;;;;;;;;;;;;;;4403033;32;20065;-83
2021/05/01 01:03:37;;;;;;;;;;;;;;;;;;4402406;32;20060;-84
2021/05/01 01:06:07;;;;;;;;;;;;;;;;;;4406373;32;20013;-84
2021/05/01 01:08:35;;;;;;;;;;;;;;;;;;4394295;32;20083;-84
2021/05/01 01:11:05;;;;;;;;;;;;;;;;;;4420804;32;19990;-83
2021/05/01 01:13:35;;;;;;;;;;;;;;;;;;4414688;32;19999;-84
2021/05/01 01:16:06;;;;;;;;;;;;;;;;;;4403168;32;20032;-84
2021/05/01 01:18:36;;;;;;;;;;;;;;;;;;4402740;32;20040;-85
2021/05/01 01:21:06;;;;;;;;;;;;;;;;;;4419578;32;19978;-84
2021/05/01 01:23:36;;;;;;;;;;;;;;;;;;4393376;32;20140;-84
2021/05/01 01:26:06;;;;;;;;;;;;;;;;;;4399817;32;20021;-84
2021/05/01 01:28:37;;;;;;;;;;;;;;;;;;4416647;32;20362;-84
2021/05/01 01:31:05;;;;;;;;;;;;;;;;;;4414424;32;20065;-84
2021/05/01 01:33:36;;;;;;;;;;;;;;;;;;4411719;32;20090;-84
2021/05/01 01:36:06;;;;;;;;;;;;;;;;;;4418868;32;19970;-84
2021/05/01 01:38:34;;;;;;;;;;;;;;;;;;4420147;32;19973;-83
2021/05/01 01:41:05;;;;;;;;;;;;;;;;;;4414297;32;20640;-84
2021/05/01 01:43:37;;;;;;;;;;;;;;;;;;4413772;32;20000;-84
2021/05/01 01:46:05;;;;;;;;;;;;;;;;;;4416130;32;20045;-84
2021/05/01 01:48:35;;;;;;;;;;;;;;;;;;4417421;32;20101;-84
2021/05/01 01:51:05;;;;;;;;;;;;;;;;;;4419655;32;20450;-83
2021/05/01 01:53:36;;;;;;;;;;;;;;;;;;4405832;32;20036;-85
2021/05/01 01:56:06;;;;;;;;;;;;;;;;;;4418234;32;19954;-84
2021/05/01 01:58:36;;;;;;;;;;;;;;;;;;4414776;32;20523;-84
2021/05/01 02:01:08;;;;;;;;;;;;;;;;;;4416913;32;19991;-85
2021/05/01 02:03:39;;;;;;;;;;;;;;;;;;4413017;32;20002;-84
2021/05/01 02:06:09;;;;;;;;;;;;;;;;;;4414917;32;20032;-84
2021/05/01 02:08:39;;;;;;;;;;;;;;;;;;4405511;32;20027;-83
2021/05/01 02:11:10;;;;;;;;;;;;;;;;;;4422838;32;20042;-85
2021/05/01 02:13:40;;;;;;;;;;;;;;;;;;4416745;32;20043;-84
2021/05/01 02:16:10;;;;;;;;;;;;;;;;;;4414512;32;19953;-84
2021/05/01 02:18:42;;;;;;;;;;;;;;;;;;4415064;32;20008;-85
2021/05/01 02:21:12;;;;;;;;;;;;;;;;;;4411413;32;20423;-84
2021/05/01 02:23:43;;;;;;;;;;;;;;;;;;4419894;32;20565;-85
2021/05/01 02:26:13;;;;;;;;;;;;;;;;;;4421937;32;19980;-84
2021/05/01 02:28:41;;;;;;;;;;;;;;;;;;4426533;32;19953;-85
2021/05/01 02:31:14;;;;;;;;;;;;;;;;;;4418110;32;20025;-84
2021/05/01 02:33:45;;;;;;;;;;;;;;;;;;4418447;32;20288;-83
2021/05/01 02:36:15;;;;;;;;;;;;;;;;;;4417725;32;20005;-84
2021/05/01 02:38:45;;;;;;;;;;;;;;;;;;4423515;32;20027;-84
2021/05/01 02:41:13;;;;;;;;;;;;;;;;;;4416022;32;20020;-85
2021/05/01 02:43:41;;;;;;;;;;;;;;;;;;4421193;32;20033;-84
2021/05/01 02:46:11;;;;;;;;;;;;;;;;;;4421750;32;19972;-85
2021/05/01 02:48:41;;;;;;;;;;;;;;;;;;4421764;32;20328;-84
2021/05/01 02:51:09;;;;;;;;;;;;;;;;;;4421998;32;20039;-84
2021/05/01 02:53:39;;;;;;;;;;;;;;;;;;4422083;32;19954;-85
2021/05/01 02:56:09;;;;;;;;;;;;;;;;;;4408827;32;19980;-84
2021/05/01 02:58:39;;;;;;;;;;;;;;;;;;4401395;32;19994;-84
2021/05/01 03:01:09;;;;;;;;;;;;;;;;;;4401963;32;19955;-84
2021/05/01 03:03:42;;;;;;;;;;;;;;;;;;4420592;32;20001;-84
2021/05/01 03:06:13;;;;;;;;;;;;;;;;;;4415216;32;19972;-83
2021/05/01 03:08:43;;;;;;;;;;;;;;;;;;4416925;32;20010;-85
2021/05/01 03:11:11;;;;;;;;;;;;;;;;;;4421480;27;20025;-95
2021/05/01 03:13:45;;;;;;;;;;;;;;;;;;4383280;32;20018;-96
2021/05/01 03:16:14;;;;;;;;;;;;;;;;;;4387450;32;19959;-95
2021/05/01 03:19:03;;;;;;;;;;;;;;;;;;4375975;32;20001;-95
2021/05/01 03:21:31;;;;;;;;;;;;;;;;;;4399356;32;20018;-96
2021/05/01 03:24:17;;;;;;;;;;;;;;;;;;4379523;32;19996;-95
2021/05/01 03:27:02;;;;;;;;;;;;;;;;;;4396572;32;19973;-96
2021/05/01 03:29:46;;;;;;;;;;;;;;;;;;4375862;32;20011;-96
2021/05/01 03:32:20;;;;;;;;;;;;;;;;;;4390385;32;19992;-95
2021/05/01 03:34:49;;;;;;;;;;;;;;;;;;4386025;32;19980;-96
2021/05/01 03:37:32;;;;;;;;;;;;;;;;;;4384821;32;20033;-95
2021/05/01 03:40:00;;;;;;;;;;;;;;;;;;4383479;32;19974;-96
2021/05/01 03:42:32;;;;;;;;;;;;;;;;;;4375958;32;20002;-96
2021/05/01 03:45:03;;;;;;;;;;;;;;;;;;4370914;32;20001;-96
2021/05/01 03:47:36;;;;;;;;;;;;;;;;;;4375575;32;20086;-95
2021/05/01 03:50:04;;;;;;;;;;;;;;;;;;4384441;32;19974;-96
2021/05/01 03:53:06;;;;;;;;;;;;;;;;;;4375100;32;19962;-96
2021/05/01 03:55:46;;;;;;;;;;;;;;;;;;4376260;32;19988;-96
2021/05/01 03:58:21;;;;;;;;;;;;;;;;;;4386812;32;20040;-96
2021/05/01 04:01:02;;;;;;;;;;;;;;;;;;4392479;32;20592;-95
2021/05/01 04:03:31;;;;;;;;;;;;;;;;;;4378397;32;20279;-95
2021/05/01 04:06:01;;;;;;;;;;;;;;;;;;4385998;32;20490;-95
2021/05/01 04:08:32;;;;;;;;;;;;;;;;;;4376179;32;19954;-94
2021/05/01 04:11:00;;;;;;;;;;;;;;;;;;4389522;32;20302;-96
2021/05/01 04:13:42;;;;;;;;;;;;;;;;;;4387830;32;19950;-96
2021/05/01 04:16:14;;;;;;;;;;;;;;;;;;4386305;32;19990;-95
2021/05/01 04:18:54;;;;;;;;;;;;;;;;;;4379498;32;19950;-96
2021/05/01 04:21:29;;;;;;;;;;;;;;;;;;4389613;32;19969;-96
2021/05/01 04:24:09;;;;;;;;;;;;;;;;;;4374954;32;20379;-94
2021/05/01 04:26:39;;;;;;;;;;;;;;;;;;4378629;32;19972;-96
2021/05/01 04:29:12;;;;;;;;;;;;;;;;;;4368264;32;19968;-95
2021/05/01 04:31:40;;;;;;;;;;;;;;;;;;4368726;32;19980;-95
2021/05/01 04:34:13;;;;;;;;;;;;;;;;;;4385925;32;19958;-96
2021/05/01 04:36:41;;;;;;;;;;;;;;;;;;4379952;32;20005;-96
2021/05/01 04:39:16;;;;;;;;;;;;;;;;;;4365895;32;20013;-95
2021/05/01 04:41:49;;;;;;;;;;;;;;;;;;4374279;32;19976;-95
2021/05/01 04:44:19;;;;;;;;;;;;;;;;;;4386724;32;19951;-96
2021/05/01 04:47:08;;;;;;;;;;;;;;;;;;4378836;32;19957;-96
2021/05/01 04:49:53;;;;;;;;;;;;;;;;;;4373761;32;19971;-95
2021/05/01 04:52:34;;;;;;;;;;;;;;;;;;4375658;32;19955;-95
2021/05/01 04:55:08;;;;;;;;;;;;;;;;;;4374327;32;19996;-95
2021/05/01 04:57:41;;;;;;;;;;;;;;;;;;4395638;32;19966;-96
2021/05/01 05:00:10;;;;;;;;;;;;;;;;;;4371925;32;19991;-96
2021/05/01 05:02:38;;;;;;;;;;;;;;;;;;4379814;32;19943;-95
2021/05/01 05:05:30;;;;;;;;;;;;;;;;;;4350962;32;19959;-95
2021/05/01 05:08:05;;;;;;;;;;;;;;;;;;4385031;32;19955;-96
2021/05/01 05:10:41;;;;;;;;;;;;;;;;;;4372157;32;20054;-96
2021/05/01 05:13:14;;;;;;;;;;;;;;;;;;4370052;32;19962;-96
2021/05/01 05:16:03;;;;;;;;;;;;;;;;;;4371566;32;19965;-96
2021/05/01 05:18:35;;;;;;;;;;;;;;;;;;4389411;32;20287;-95
2021/05/01 05:21:31;;;;;;;;;;;;;;;;;;4380234;32;20008;-96
2021/05/01 05:24:05;;;;;;;;;;;;;;;;;;4380872;32;20012;-95
2021/05/01 05:26:33;;;;;;;;;;;;;;;;;;4385813;32;19962;-96
2021/05/01 05:29:09;;;;;;;;;;;;;;;;;;4372096;32;19977;-95
2021/05/01 05:31:44;;;;;;;;;;;;;;;;;;4381703;32;19994;-96
2021/05/01 05:34:17;;;;;;;;;;;;;;;;;;4374391;32;19947;-96
2021/05/01 05:36:49;;;;;;;;;;;;;;;;;;4384985;32;19974;-96
2021/05/01 05:39:21;;;;;;;;;;;;;;;;;;4378602;32;20006;-96
2021/05/01 05:41:53;;;;;;;;;;;;;;;;;;4386438;32;19991;-96
2021/05/01 05:44:30;;;;;;;;;;;;;;;;;;4375057;32;19995;-96
2021/05/01 05:47:13;;;;;;;;;;;;;;;;;;4388364;32;19994;-94
2021/05/01 05:49:45;;;;;;;;;;;;;;;;;;4377592;32;19969;-96
2021/05/01 05:52:37;;;;;;;;;;;;;;;;;;4376648;32;20050;-96
2021/05/01 05:55:21;;;;;;;;;;;;;;;;;;4383419;32;20206;-96
2021/05/01 05:58:13;;;;;;;;;;;;;;;;;;4372038;32;20004;-95
2021/05/01 06:00:43;;;;;;;;;;;;;;;;;;4386501;32;19973;-94
2021/05/01 06:03:45;;;;;;;;;;;;;;;;;;4381070;32;20082;-96
2021/05/01 06:06:16;;;;;;;;;;;;;;;;;;4374043;32;20007;-96
2021/05/01 06:08:46;;;;;;;;;;;;;;;;;;4388810;32;19968;-96
2021/05/01 06:11:18;;;;;;;;;;;;;;;;;;4367412;32;20545;-96
2021/05/01 06:13:58;;;;;;;;;;;;;;;;;;4389776;32;19947;-96
2021/05/01 06:16:36;;;;;;;;;;;;;;;;;;4378439;32;19950;-96
2021/05/01 06:19:09;;;;;;;;;;;;;;;;;;4375637;32;20586;-95
2021/05/01 06:21:45;;;;;;;;;;;;;;;;;;4385949;32;19980;-96
2021/05/01 06:24:21;;;;;;;;;;;;;;;;;;4373527;32;19965;-94
2021/05/01 06:26:56;;;;;;;;;;;;;;;;;;4368890;32;19972;-96
2021/05/01 06:29:33;;;;;;;;;;;;;;;;;;4387884;32;19947;-96
2021/05/01 06:32:03;;;;;;;;;;;;;;;;;;4378562;32;19954;-96
2021/05/01 06:34:37;;;;;;;;;;;;;;;;;;4364052;32;19946;-96
2021/05/01 06:37:05;;;;;;;;;;;;;;;;;;4386793;32;19988;-96
2021/05/01 06:39:37;;;;;;;;;;;;;;;;;;4378922;32;19957;-96
2021/05/01 06:42:13;;;;;;;;;;;;;;;;;;4376989;32;20568;-96
2021/05/01 06:44:41;;;;;;;;;;;;;;;;;;4377984;32;20028;-95
2021/05/01 06:47:10;;;;;;;;;;;;;;;;;;4376286;32;19973;-96
2021/05/01 06:49:41;;;;;;;;;;;;;;;;;;4376076;32;20019;-96
2021/05/01 06:52:17;;;;;;;;;;;;;;;;;;4362607;32;19996;-96
2021/05/01 06:54:55;;;;;;;;;;;;;;;;;;4372273;32;20398;-96
2021/05/01 06:57:27;;;;;;;;;;;;;;;;;;4376120;32;19991;-96
2021/05/01 06:59:55;;;;;;;;;;;;;;;;;;4377570;32;20001;-96
2021/05/01 07:02:32;;;;;;;;;;;;;;;;;;4385285;32;19980;-96
2021/05/01 07:05:06;;;;;;;;;;;;;;;;;;4384649;32;19978;-96
2021/05/01 07:07:57;;;;;;;;;;;;;;;;;;4379064;32;20045;-96
2021/05/01 07:10:30;;;;;;;;;;;;;;;;;;4373869;32;20343;-96
2021/05/01 07:13:05;;;;;;;;;;;;;;;;;;4382975;32;20009;-96
2021/05/01 07:15:32;;;;;;;;;;;;;;;;;;4363465;32;20295;-96
2021/05/01 07:18:15;;;;;;;;;;;;;;;;;;4385461;32;19958;-96
2021/05/01 07:20:49;;;;;;;;;;;;;;;;;;4374151;32;20421;-96
2021/05/01 07:23:20;;;;;;;;;;;;;;;;;;4379364;32;20059;-96
2021/05/01 07:25:50;;;;;;;;;;;;;;;;;;4372725;32;19959;-96
2021/05/01 07:28:21;;;;;;;;;;;;;;;;;;4385653;32;20017;-96
2021/05/01 07:31:12;;;;;;;;;;;;;;;;;;4384955;32;20057;-96
2021/05/01 07:33:46;;;;;;;;;;;;;;;;;;4389145;32;20017;-96
2021/05/01 07:36:20;;;;;;;;;;;;;;;;;;4369414;32;19981;-96
2021/05/01 07:38:58;;;;;;;;;;;;;;;;;;4387155;32;19978;-96
2021/05/01 07:41:46;;;;;;;;;;;;;;;;;;;;;
2021/05/01 07:44:38;;;;;;;;;;;;;;;;;;4392358;32;19975;-96
2021/05/01 07:47:10;;;;;;;;;;;;;;;;;;4375221;32;20038;-96
2021/05/01 07:49:42;;;;;;;;;;;;;;;;;;4372419;32;20025;-96
2021/05/01 07:52:16;;;;;;;;;;;;;;;;;;4398055;32;20339;-96
2021/05/01 07:54:50;;;;;;;;;;;;;;;;;;4375850;32;19958;-96
2021/05/01 07:57:42;;;;;;;;;;;;;;;;;;4374019;32;20143;-96
2021/05/01 08:00:17;;;;;;;;;;;;;;;;;;4385497;32;19973;-96
2021/05/01 08:02:53;;;;;;;;;;;;;;;;;;4410120;32;19928;-96
2021/05/01 08:08:59;;;;;;;;;;;;;;;;;;4388525;32;20005;-96
2021/05/01 08:11:34;;;;;;;;;;;;;;;;;;4377082;32;19955;-96
2021/05/01 08:14:26;;;;;;;;;;;;;;;;;;4378591;32;19982;-96
2021/05/01 08:17:09;;;;;;;;;;;;;;;;;;4363470;32;19932;-96
2021/05/01 08:19:43;;;;;;;;;;;;;;;;;;4366187;32;19955;-96
2021/05/01 08:22:22;;;;;;;;;;;;;;;;;;4363511;32;19978;-96
2021/05/01 08:24:54;;;;;;;;;;;;;;;;;;4379349;32;19955;-96
2021/05/01 08:27:23;;;;;;;;;;;;;;;;;;4360262;32;20007;-96
2021/05/01 08:29:53;;;;;;;;;;;;;;;;;;4361635;32;19958;-96
2021/05/01 08:32:22;;;;;;;;;;;;;;;;;;4370988;32;19998;-96
2021/05/01 08:34:53;;;;;;;;;;;;;;;;;;4362645;32;19954;-96
2021/05/01 08:37:21;;;;;;;;;;;;;;;;;;4373377;32;20385;-96
2021/05/01 08:39:50;;;;;;;;;;;;;;;;;;4373860;32;19995;-96
2021/05/01 08:42:36;;;;;;;;;;;;;;;;;;4369435;32;19991;-96
2021/05/01 08:45:27;;;;;;;;;;;;;;;;;;4386214;32;19951;-96
2021/05/01 08:48:16;;;;;;;;;;;;;;;;;;4372544;32;19955;-96
2021/05/01 08:50:57;;;;;;;;;;;;;;;;;;4371317;32;19973;-96
2021/05/01 08:54:03;;;;;;;;;;;;;;;;;;4369368;32;19951;-96
2021/05/01 08:56:34;;;;;;;;;;;;;;;;;;4369288;32;20017;-95
2021/05/01 08:59:07;;;;;;;;;;;;;;;;;;4362380;32;19991;-96
2021/05/01 09:01:42;;;;;;;;;;;;;;;;;;4362294;32;20142;-95
2021/05/01 09:04:25;;;;;;;;;;;;;;;;;;4359454;32;20063;-96
2021/05/01 09:07:02;;;;;;;;;;;;;;;;;;4372673;32;20005;-96
2021/05/01 09:10:05;;;;;;;;;;;;;;;;;;4374237;32;19963;-96
2021/05/01 09:12:53;;;;;;;;;;;;;;;;;;4347483;32;19982;-96
2021/05/01 09:15:36;;;;;;;;;;;;;;;;;;4387816;32;19939;-95
2021/05/01 09:18:34;;;;;;;;;;;;;;;;;;4365102;32;19971;-96
2021/05/01 09:21:40;;;;;;;;;;;;;;;;;;4374039;32;19947;-96
2021/05/01 09:24:16;;;;;;;;;;;;;;;;;;4375520;32;20016;-96
2021/05/01 09:26:59;;;;;;;;;;;;;;;;;;4382848;32;19956;-96
2021/05/01 09:29:42;;;;;;;;;;;;;;;;;;4364888;32;19994;-96
2021/05/01 09:32:24;;;;;;;;;;;;;;;;;;4376159;32;19955;-96
2021/05/01 09:35:39;;;;;;;;;;;;;;;;;;4374233;32;19931;-96
2021/05/01 09:38:33;;;;;;;;;;;;;;;;;;4374415;32;20018;-96
2021/05/01 09:41:24;;;;;;;;;;;;;;;;;;4382623;32;19959;-96
2021/05/01 09:43:55;;;;;;;;;;;;;;;;;;4381672;32;19965;-96
2021/05/01 09:47:04;;;;;;;;;;;;;;;;;;;;;
2021/05/01 09:50:29;;;;;;;;;;;;;;;;;;4378313;32;19955;-96
2021/05/01 09:53:28;;;;;;;;;;;;;;;;;;4367851;33;19966;-96
2021/05/01 09:59:14;;;;;;;;;;;;;;;;;;4414302;27;19951;-82
2021/05/01 10:01:42;;;;;;;;;;;;;;;;;;4339817;32;20042;-85
2021/05/01 10:04:16;;;;;;;;;;;;;;;;;;4374305;32;19977;-83
2021/05/01 10:06:44;;;;;;;;;;;;;;;;;;4356862;32;20301;-84
2021/05/01 10:09:12;;;;;;;;;;;;;;;;;;4365259;32;19955;-85
2021/05/01 10:11:42;;;;;;;;;;;;;;;;;;4355594;32;20594;-84
2021/05/01 10:14:13;;;;;;;;;;;;;;;;;;4368306;32;19967;-88
2021/05/01 10:16:43;;;;;;;;;;;;;;;;;;4371985;32;20017;-83
2021/05/01 10:19:14;;;;;;;;;;;;;;;;;;4350917;32;19967;-85
2021/05/01 10:21:47;;;;;;;;;;;;;;;;;;4358117;32;19977;-86
2021/05/01 10:24:18;;;;;;;;;;;;;;;;;;4341013;32;20014;-85
2021/05/01 10:26:46;;;;;;;;;;;;;;;;;;4378236;32;19947;-83
2021/05/01 10:29:19;;;;;;;;;;;;;;;;;;4338757;32;20026;-85
2021/05/01 10:31:56;;;;;;;;;;;;;;;;;;4357204;32;19959;-86
2021/05/01 10:34:26;;;;;;;;;;;;;;;;;;4342888;32;20177;-83
2021/05/01 10:36:57;;;;;;;;;;;;;;;;;;4366354;32;19963;-85
2021/05/01 10:39:31;;;;;;;;;;;;;;;;;;4346099;32;20412;-88
2021/05/01 10:42:03;;;;;;;;;;;;;;;;;;4334712;32;20014;-89
2021/05/01 10:44:36;;;;;;;;;;;;;;;;;;4371822;32;20033;-88
2021/05/01 10:47:08;;;;;;;;;;;;;;;;;;4350133;32;19971;-88
2021/05/01 10:49:36;;;;;;;;;;;;;;;;;;4336641;32;20045;-87
2021/05/01 10:52:05;;;;;;;;;;;;;;;;;;4339730;32;20328;-86
2021/05/01 10:54:35;;;;;;;;;;;;;;;;;;4355900;32;19971;-86
2021/05/01 10:57:06;;;;;;;;;;;;;;;;;;4347636;32;19992;-86
2021/05/01 10:59:35;;;;;;;;;;;;;;;;;;4371051;32;20329;-86
2021/05/01 11:02:06;;;;;;;;;;;;;;;;;;4352380;32;19947;-90
2021/05/01 11:04:38;;;;;;;;;;;;;;;;;;4355145;32;19962;-87
2021/05/01 11:07:11;;;;;;;;;;;;;;;;;;4349855;32;20006;-88
2021/05/01 11:09:44;;;;;;;;;;;;;;;;;;4336975;32;20060;-89
2021/05/01 11:12:18;;;;;;;;;;;;;;;;;;4342944;32;20000;-88
2021/05/01 11:14:51;;;;;;;;;;;;;;;;;;4354350;32;20001;-87
2021/05/01 11:17:33;;;;;;;;;;;;;;;;;;4341893;32;20014;-90
2021/05/01 11:20:08;;;;;;;;;;;;;;;;;;4347506;32;20006;-89
2021/05/01 11:22:38;;;;;;;;;;;;;;;;;;4343438;32;20041;-87
2021/05/01 11:25:14;;;;;;;;;;;;;;;;;;4376412;32;19958;-86
2021/05/01 11:27:48;;;;;;;;;;;;;;;;;;4348332;32;19963;-89
2021/05/01 11:30:40;;;;;;;;;;;;;;;;;;4348990;32;19974;-87
2021/05/01 11:33:13;;;;;;;;;;;;;;;;;;4367624;32;19963;-87
2021/05/01 11:35:45;;;;;;;;;;;;;;;;;;4345873;32;20101;-87
2021/05/01 11:38:14;;;;;;;;;;;;;;;;;;4335340;32;20745;-87
2021/05/01 11:40:45;;;;;;;;;;;;;;;;;;4355460;32;19978;-85
2021/05/01 11:43:20;;;;;;;;;;;;;;;;;;4360883;32;19969;-86
2021/05/01 11:45:49;;;;;;;;;;;;;;;;;;4347209;32;19967;-86
2021/05/01 11:48:19;;;;;;;;;;;;;;;;;;4371461;32;19986;-88
2021/05/01 11:51:05;;;;;;;;;;;;;;;;;;4350684;32;19963;-91
2021/05/01 11:53:42;;;;;;;;;;;;;;;;;;4350750;32;20630;-89
2021/05/01 11:56:33;;;;;;;;;;;;;;;;;;4359721;32;19990;-89
2021/05/01 11:59:01;;;;;;;;;;;;;;;;;;4357641;32;19955;-87
2021/05/01 12:01:33;;;;;;;;;;;;;;;;;;4373730;32;19985;-87
2021/05/01 12:04:05;;;;;;;;;;;;;;;;;;4353835;32;19955;-88
2021/05/01 12:06:38;;;;;;;;;;;;;;;;;;4376725;32;20034;-84
2021/05/01 12:09:09;;;;;;;;;;;;;;;;;;4360859;32;20353;-85
2021/05/01 12:11:41;;;;;;;;;;;;;;;;;;4354095;32;20014;-86
2021/05/01 12:14:11;;;;;;;;;;;;;;;;;;4362343;32;19962;-87
2021/05/01 12:16:42;;;;;;;;;;;;;;;;;;4344862;32;19970;-86
2021/05/01 12:19:16;;;;;;;;;;;;;;;;;;4352301;32;19959;-88
2021/05/01 12:21:46;;;;;;;;;;;;;;;;;;4356165;32;20002;-87
2021/05/01 12:24:16;;;;;;;;;;;;;;;;;;4370597;32;19969;-86
2021/05/01 12:26:53;;;;;;;;;;;;;;;;;;4360552;32;20482;-85
2021/05/01 12:29:27;;;;;;;;;;;;;;;;;;4371167;32;20350;-89
2021/05/01 12:31:58;;;;;;;;;;;;;;;;;;4365797;32;20002;-87
2021/05/01 12:34:26;;;;;;;;;;;;;;;;;;4355493;32;20390;-83
2021/05/01 12:36:54;;;;;;;;;;;;;;;;;;4377676;32;20773;-84
2021/05/01 12:42:06;;;;;;;;;;;;;;;;;;4363838;32;19978;-87
2021/05/01 12:44:33;;;;;;;;;;;;;;;;;;4368579;32;19954;-87
2021/05/01 12:47:04;;;;;;;;;;;;;;;;;;4350845;32;19993;-86
2021/05/01 12:49:35;;;;;;;;;;;;;;;;;;4351411;32;19959;-87
2021/05/01 12:52:06;;;;;;;;;;;;;;;;;;4364744;32;20046;-88
2021/05/01 12:54:37;;;;;;;;;;;;;;;;;;4377495;32;20001;-86
2021/05/01 12:57:15;;;;;;;;;;;;;;;;;;4360968;32;19978;-87
2021/05/01 12:59:48;;;;;;;;;;;;;;;;;;4358168;32;20014;-85
2021/05/01 13:02:19;;;;;;;;;;;;;;;;;;4358825;32;19978;-89
2021/05/01 13:04:50;;;;;;;;;;;;;;;;;;4350571;32;20360;-87
2021/05/01 13:07:22;;;;;;;;;;;;;;;;;;4347595;32;20350;-87
2021/05/01 13:10:01;;;;;;;;;;;;;;;;;;4359240;32;19967;-89
2021/05/01 13:12:35;;;;;;;;;;;;;;;;;;4362526;32;20399;-84
2021/05/01 13:15:03;;;;;;;;;;;;;;;;;;4366135;32;20278;-87
2021/05/01 13:17:35;;;;;;;;;;;;;;;;;;4357822;32;20288;-87
2021/05/01 13:20:09;;;;;;;;;;;;;;;;;;4364318;32;19982;-87
2021/05/01 13:22:40;;;;;;;;;;;;;;;;;;4358793;32;20324;-89
2021/05/01 13:25:12;;;;;;;;;;;;;;;;;;4361137;32;19959;-88
2021/05/01 13:27:48;;;;;;;;;;;;;;;;;;4361700;32;20286;-86
2021/05/01 13:30:18;;;;;;;;;;;;;;;;;;4346385;32;20014;-87
2021/05/01 13:32:50;;;;;;;;;;;;;;;;;;4367469;32;19985;-88
2021/05/01 13:35:25;;;;;;;;;;;;;;;;;;4370792;32;20324;-90
2021/05/01 13:37:53;;;;;;;;;;;;;;;;;;4367283;32;19954;-87
2021/05/01 13:42:59;;;;;;;;;;;;;;;;;;4367319;32;19963;-89
2021/05/01 13:45:27;;;;;;;;;;;;;;;;;;4370616;32;19947;-85
2021/05/01 13:48:03;;;;;;;;;;;;;;;;;;4357843;32;20293;-83
2021/05/01 13:50:33;;;;;;;;;;;;;;;;;;4358207;32;20017;-85
2021/05/01 13:53:05;;;;;;;;;;;;;;;;;;4349930;32;19963;-84
2021/05/01 13:55:34;;;;;;;;;;;;;;;;;;4353802;32;20397;-85
2021/05/01 13:58:05;;;;;;;;;;;;;;;;;;4356299;32;19962;-83
2021/05/01 14:00:35;;;;;;;;;;;;;;;;;;4365487;32;19955;-88
2021/05/01 14:03:09;;;;;;;;;;;;;;;;;;4351842;32;19986;-85
2021/05/01 14:05:36;;;;;;;;;;;;;;;;;;4344241;33;19967;-85
2021/05/01 14:08:07;;;;;;;;;;;;;;;;;;4355832;32;20006;-87
2021/05/01 14:10:44;;;;;;;;;;;;;;;;;;4351749;32;20733;-85
2021/05/01 14:13:15;;;;;;;;;;;;;;;;;;4344739;32;20358;-91
2021/05/01 14:15:51;;;;;;;;;;;;;;;;;;4346702;32;19999;-87
2021/05/01 14:18:24;;;;;;;;;;;;;;;;;;4349441;32;20495;-88
2021/05/01 14:21:07;;;;;;;;;;;;;;;;;;4334084;32;20375;-88
2021/05/01 14:23:47;;;;;;;;;;;;;;;;;;4344702;32;20007;-86
2021/05/01 14:26:22;;;;;;;;;;;;;;;;;;4349322;32;19948;-89
2021/05/01 14:28:53;;;;;;;;;;;;;;;;;;4334963;32;20318;-88
2021/05/01 14:31:28;;;;;;;;;;;;;;;;;;4349647;32;20003;-87
2021/05/01 14:36:44;;;;;;;;;;;;;;;;;;4351229;32;20342;-87
2021/05/01 14:39:31;;;;;;;;;;;;;;;;;;4363076;32;20274;-91
2021/05/01 14:42:08;;;;;;;;;;;;;;;;;;4339386;32;20005;-89
2021/05/01 14:44:43;;;;;;;;;;;;;;;;;;4335584;32;20622;-85
2021/05/01 14:47:15;;;;;;;;;;;;;;;;;;4332366;32;20001;-88
2021/05/01 14:49:44;;;;;;;;;;;;;;;;;;4316030;32;20381;-86
2021/05/01 14:52:14;;;;;;;;;;;;;;;;;;4328798;32;19952;-87
2021/05/01 14:54:53;;;;;;;;;;;;;;;;;;4345072;32;20232;-87
2021/05/01 14:57:34;;;;;;;;;;;;;;;;;;4345372;32;19991;-85
2021/05/01 15:00:08;;;;;;;;;;;;;;;;;;4333721;32;19973;-88
2021/05/01 15:02:40;;;;;;;;;;;;;;;;;;4347130;32;20346;-91
2021/05/01 15:05:16;;;;;;;;;;;;;;;;;;4345481;32;20424;-85
2021/05/01 15:07:47;;;;;;;;;;;;;;;;;;4355883;32;20042;-86
2021/05/01 15:10:22;;;;;;;;;;;;;;;;;;4326331;32;20367;-89
2021/05/01 15:12:56;;;;;;;;;;;;;;;;;;4335687;32;19973;-82
2021/05/01 15:15:31;;;;;;;;;;;;;;;;;;4361039;32;20073;-87
2021/05/01 15:18:01;;;;;;;;;;;;;;;;;;4334539;32;19993;-88
2021/05/01 15:20:32;;;;;;;;;;;;;;;;;;4349169;32;20680;-88
2021/05/01 15:23:07;;;;;;;;;;;;;;;;;;4348515;32;20370;-87
2021/05/01 15:25:43;;;;;;;;;;;;;;;;;;4338570;32;19963;-87
2021/05/01 15:28:13;;;;;;;;;;;;;;;;;;4357993;32;19957;-85
2021/05/01 15:30:47;;;;;;;;;;;;;;;;;;4368459;32;19978;-88
2021/05/01 15:33:19;;;;;;;;;;;;;;;;;;4343724;32;20691;-87
2021/05/01 15:35:48;;;;;;;;;;;;;;;;;;4337045;32;19977;-87
2021/05/01 15:38:22;;;;;;;;;;;;;;;;;;4335876;32;20038;-85
2021/05/01 15:40:53;;;;;;;;;;;;;;;;;;4332606;32;19975;-89
2021/05/01 15:43:26;;;;;;;;;;;;;;;;;;4336851;32;20488;-90
2021/05/01 15:46:04;;;;;;;;;;;;;;;;;;4362097;32;20053;-89
2021/05/01 15:48:35;;;;;;;;;;;;;;;;;;4348385;32;19994;-88
2021/05/01 15:51:07;;;;;;;;;;;;;;;;;;4362179;32;20001;-92
2021/05/01 15:53:42;;;;;;;;;;;;;;;;;;4350458;32;20515;-90
2021/05/01 15:56:30;;;;;;;;;;;;;;;;;;4350002;32;20039;-85
2021/05/01 15:59:11;;;;;;;;;;;;;;;;;;4334617;32;20006;-89
2021/05/01 16:01:43;;;;;;;;;;;;;;;;;;4328270;33;19972;-88
2021/05/01 16:04:14;;;;;;;;;;;;;;;;;;4326184;33;19985;-89
2021/05/01 16:06:44;;;;;;;;;;;;;;;;;;4328560;32;19966;-88
2021/05/01 16:09:16;;;;;;;;;;;;;;;;;;4328153;33;20094;-82
2021/05/01 16:11:43;;;;;;;;;;;;;;;;;;4333900;33;19991;-84
2021/05/01 16:14:14;;;;;;;;;;;;;;;;;;4321421;33;20009;-86
2021/05/01 16:16:43;;;;;;;;;;;;;;;;;;4324629;33;20417;-88
2021/05/01 16:19:14;;;;;;;;;;;;;;;;;;4339882;32;19975;-90
2021/05/01 16:21:42;;;;;;;;;;;;;;;;;;4333566;33;19995;-88
2021/05/01 16:24:14;;;;;;;;;;;;;;;;;;4322934;33;19999;-88
2021/05/01 16:26:44;;;;;;;;;;;;;;;;;;4324091;32;20411;-84
2021/05/01 16:29:15;;;;;;;;;;;;;;;;;;4324055;33;19975;-88
2021/05/01 16:31:51;;;;;;;;;;;;;;;;;;4326916;32;20000;-87
2021/05/01 16:34:22;;;;;;;;;;;;;;;;;;4317806;32;19995;-89
2021/05/01 16:36:58;;;;;;;;;;;;;;;;;;4323936;32;20025;-87
2021/05/01 16:39:29;;;;;;;;;;;;;;;;;;4316899;32;19963;-89
2021/05/01 16:42:04;;;;;;;;;;;;;;;;;;4334170;32;20034;-87
2021/05/01 16:44:33;;;;;;;;;;;;;;;;;;4331079;32;19971;-88
2021/05/01 16:47:06;;;;;;;;;;;;;;;;;;4314422;33;19964;-87
2021/05/01 16:49:44;;;;;;;;;;;;;;;;;;4337110;32;19979;-89
2021/05/01 16:52:16;;;;;;;;;;;;;;;;;;4334048;33;20016;-85
2021/05/01 16:54:47;;;;;;;;;;;;;;;;;;4339663;33;20248;-86
2021/05/01 16:57:22;;;;;;;;;;;;;;;;;;4328264;32;20053;-86
2021/05/01 16:59:50;;;;;;;;;;;;;;;;;;4322751;32;20057;-89
2021/05/01 17:02:24;;;;;;;;;;;;;;;;;;4335447;32;19959;-88
2021/05/01 17:05:07;;;;;;;;;;;;;;;;;;4328799;32;20179;-89
2021/05/01 17:07:51;;;;;;;;;;;;;;;;;;4335929;32;19974;-88
2021/05/01 17:10:22;;;;;;;;;;;;;;;;;;4347060;32;19974;-88
2021/05/01 17:13:01;;;;;;;;;;;;;;;;;;4334694;32;19977;-86
2021/05/01 17:15:32;;;;;;;;;;;;;;;;;;4340219;32;19997;-91
2021/05/01 17:18:05;;;;;;;;;;;;;;;;;;4345499;32;19979;-85
2021/05/01 17:20:33;;;;;;;;;;;;;;;;;;4337723;32;20521;-88
2021/05/01 17:23:01;;;;;;;;;;;;;;;;;;4337510;32;19979;-86
2021/05/01 17:25:33;;;;;;;;;;;;;;;;;;4340067;32;20001;-87
2021/05/01 17:28:04;;;;;;;;;;;;;;;;;;4346363;32;20014;-86
2021/05/01 17:30:31;;;;;;;;;;;;;;;;;;4346519;32;19990;-88
2021/05/01 17:32:59;;;;;;;;;;;;;;;;;;4333682;32;19963;-87
2021/05/01 17:35:27;;;;;;;;;;;;;;;;;;4340674;32;20033;-89
2021/05/01 17:38:02;;;;;;;;;;;;;;;;;;4337150;32;19979;-87
2021/05/01 17:40:32;;;;;;;;;;;;;;;;;;4331277;32;19995;-93
2021/05/01 17:43:00;;;;;;;;;;;;;;;;;;4324871;32;20094;-87
2021/05/01 17:45:44;;;;;;;;;;;;;;;;;;4329592;32;19983;-85
2021/05/01 17:48:33;;;;;;;;;;;;;;;;;;4313108;32;20139;-87
2021/05/01 17:51:13;;;;;;;;;;;;;;;;;;4336680;32;20777;-87